Wednesday, December 17, 2014
21:28 UTC
  |  Log In   |  Register Free
Airport Search:

Ormond Beach Municipal Airport
(KOMN)

FAA data valid effective November 13, 2014 - January 08, 2015 (unless otherwise noted).

 
 
 
 
 
 
 
 
 
 
 
 
 
 

Current Aviation Weather for Ormond Beach Municipal Airport (KOMN)

The most recent METAR observation for KOMN was updated at: 2117
METAR Summary (Translated METAR)
KOMN
172050Z 29006KT 10SM SKC 20/08 A3010
KDAB
172053Z 29006KT 10SM FEW250 22/07 A3010 RMK AO2 SLP192 T02170067 55013
(7.8 nm SE from KOMN)
KFIN
172050Z 29007KT 7SM SKC A3010
(11.1 nm NW from KOMN)
TAF Summary (Translated TAF)
KDAB
(7.8 nm SE from KOMN)
171736Z 1718/1818 32004KT P6SM SKC= TAF TIST 171738Z 1718/1818 05010KT P6SM FEW030 SCT050 FM172300 03008KT P6SM FEW025 SCT040 FM181400 06012KT P6SM FEW025
  Airport Weather Conditions for KOMN

 Current Weather at OMN
68° F
Clear
West winds at 6.9 mph
OMN NOAA Radar

Pressure: 30.10 in
Humidity: 46%
Wind: West at 6.9 MPH (6 KT)
Dew Point: 46.4°F
Visibility: 10.00 mi


Airport Weather Forecast for KOMN

Translated METAR and TAF for KOMN
Translated METAR for KOMN (2128 UTC 17 December 2014)
found at http://aviationweather.gov/adds/metars/
 
METAR text: KOMN 172050Z 29006KT 10SM SKC 20/08 A3010
Conditions at: KOMN (ORMOND BEACH VOR, FL, US) observed 2050 UTC 17 December 2014
Temperature: 20.0°C (68°F)
Dewpoint: 8.0°C (46°F) [RH = 46%]
Pressure (altimeter): 30.10 inches Hg (1019.4 mb)
Winds: from the WNW (290 degrees) at 7 MPH (6 knots; 3.1 m/s)
Visibility: 10 or more miles (16+ km)
Ceiling: at least 12,000 feet AGL
Clouds: clear skies
Weather: no significant weather observed at this time
Translated TAF for KOMN

There is no translated TAF available for this airport

Find All Airport Services Find A Hotel Find A Rental Car Find A Golf Course Find A Restaurant $100 Hamburger



FBO's on the Field
FBO Company Facility Photos Services Transportation Aviation Fuel Prices: Prices include tax
Catering Weather Repair Courtesy Rental Type 100LL JetA JetA+ MOGAS 8087
 
Sunrise Aviation

Currently rated 1.9 by 3 people
FS:Shell
Last Updated: Dec-15
Login to update fuel prices
SS:
Contact Sunrise AviationMore FBO Information
 
Add another FBO Facility Photos Catering Weather Repair Courtesy Rental Type 100LL JetA JetA+ MOGAS 8087
Services Transportation Aviation Fuel Prices: Prices include tax


model-print
model-print
model-print
model-print